sensor_id;sensor_type;location;lat;lon;timestamp;P1;durP1;ratioP1;P2;durP2;ratioP2
59207;SDS011;44977;53.132;6.408;2023-07-30T00:01:58;18.35;;;7.25;;
59207;SDS011;44977;53.132;6.408;2023-07-30T00:06:59;17.15;;;7.22;;
59207;SDS011;44977;53.132;6.408;2023-07-30T00:12:00;15.57;;;6.28;;
59207;SDS011;44977;53.132;6.408;2023-07-30T00:17:02;15.35;;;6.65;;
59207;SDS011;44977;53.132;6.408;2023-07-30T00:22:04;16.10;;;6.82;;
59207;SDS011;44977;53.132;6.408;2023-07-30T00:27:05;18.15;;;7.43;;
59207;SDS011;44977;53.132;6.408;2023-07-30T00:32:06;16.65;;;7.22;;
59207;SDS011;44977;53.132;6.408;2023-07-30T00:37:07;16.85;;;6.90;;
59207;SDS011;44977;53.132;6.408;2023-07-30T00:42:07;15.73;;;6.82;;
59207;SDS011;44977;53.132;6.408;2023-07-30T00:47:08;16.90;;;7.55;;
59207;SDS011;44977;53.132;6.408;2023-07-30T00:52:09;16.45;;;7.10;;
59207;SDS011;44977;53.132;6.408;2023-07-30T00:57:10;16.33;;;7.10;;
59207;SDS011;44977;53.132;6.408;2023-07-30T01:02:12;16.30;;;7.13;;
59207;SDS011;44977;53.132;6.408;2023-07-30T01:07:12;16.52;;;6.78;;
59207;SDS011;44977;53.132;6.408;2023-07-30T01:12:13;16.40;;;6.43;;
59207;SDS011;44977;53.132;6.408;2023-07-30T01:17:14;13.82;;;5.97;;
59207;SDS011;44977;53.132;6.408;2023-07-30T01:22:16;13.68;;;6.53;;
59207;SDS011;44977;53.132;6.408;2023-07-30T01:27:24;16.77;;;7.10;;
59207;SDS011;44977;53.132;6.408;2023-07-30T01:32:28;17.60;;;6.90;;
59207;SDS011;44977;53.132;6.408;2023-07-30T01:37:29;19.33;;;7.13;;
59207;SDS011;44977;53.132;6.408;2023-07-30T01:42:30;16.95;;;7.07;;
59207;SDS011;44977;53.132;6.408;2023-07-30T01:47:31;17.73;;;6.82;;
59207;SDS011;44977;53.132;6.408;2023-07-30T01:52:32;17.45;;;6.38;;
59207;SDS011;44977;53.132;6.408;2023-07-30T01:57:33;16.35;;;6.07;;
59207;SDS011;44977;53.132;6.408;2023-07-30T02:02:33;21.15;;;7.10;;
59207;SDS011;44977;53.132;6.408;2023-07-30T02:07:35;20.67;;;7.15;;
59207;SDS011;44977;53.132;6.408;2023-07-30T02:12:36;18.25;;;7.15;;
59207;SDS011;44977;53.132;6.408;2023-07-30T02:17:36;16.83;;;6.55;;
59207;SDS011;44977;53.132;6.408;2023-07-30T02:22:37;18.48;;;6.68;;
59207;SDS011;44977;53.132;6.408;2023-07-30T02:27:38;18.65;;;6.57;;
59207;SDS011;44977;53.132;6.408;2023-07-30T02:32:38;18.27;;;6.43;;
59207;SDS011;44977;53.132;6.408;2023-07-30T02:37:39;16.10;;;6.65;;
59207;SDS011;44977;53.132;6.408;2023-07-30T02:42:40;15.68;;;6.20;;
59207;SDS011;44977;53.132;6.408;2023-07-30T02:47:40;20.92;;;6.72;;
59207;SDS011;44977;53.132;6.408;2023-07-30T02:52:41;17.52;;;6.22;;
59207;SDS011;44977;53.132;6.408;2023-07-30T02:57:42;20.45;;;6.20;;
59207;SDS011;44977;53.132;6.408;2023-07-30T03:02:42;16.95;;;6.05;;
59207;SDS011;44977;53.132;6.408;2023-07-30T03:07:43;17.02;;;5.95;;
59207;SDS011;44977;53.132;6.408;2023-07-30T03:12:43;16.02;;;5.90;;
59207;SDS011;44977;53.132;6.408;2023-07-30T03:17:44;20.23;;;6.25;;
59207;SDS011;44977;53.132;6.408;2023-07-30T03:22:45;17.77;;;6.28;;
59207;SDS011;44977;53.132;6.408;2023-07-30T03:27:45;19.05;;;6.20;;
59207;SDS011;44977;53.132;6.408;2023-07-30T03:32:46;17.33;;;5.53;;
59207;SDS011;44977;53.132;6.408;2023-07-30T03:37:47;19.80;;;5.72;;
59207;SDS011;44977;53.132;6.408;2023-07-30T03:42:48;15.57;;;6.10;;
59207;SDS011;44977;53.132;6.408;2023-07-30T03:47:49;17.48;;;5.65;;
59207;SDS011;44977;53.132;6.408;2023-07-30T03:52:50;15.75;;;5.32;;
59207;SDS011;44977;53.132;6.408;2023-07-30T03:57:50;16.17;;;5.60;;
59207;SDS011;44977;53.132;6.408;2023-07-30T04:02:51;19.48;;;5.75;;
59207;SDS011;44977;53.132;6.408;2023-07-30T04:07:52;20.70;;;6.32;;
59207;SDS011;44977;53.132;6.408;2023-07-30T04:12:52;21.15;;;6.13;;
59207;SDS011;44977;53.132;6.408;2023-07-30T04:17:53;16.00;;;6.07;;
59207;SDS011;44977;53.132;6.408;2023-07-30T04:22:54;16.77;;;5.68;;
59207;SDS011;44977;53.132;6.408;2023-07-30T04:27:54;18.23;;;5.90;;
59207;SDS011;44977;53.132;6.408;2023-07-30T04:32:55;17.42;;;6.05;;
59207;SDS011;44977;53.132;6.408;2023-07-30T04:37:56;17.60;;;5.75;;
59207;SDS011;44977;53.132;6.408;2023-07-30T04:42:56;16.17;;;5.68;;
59207;SDS011;44977;53.132;6.408;2023-07-30T04:47:57;20.20;;;6.18;;
59207;SDS011;44977;53.132;6.408;2023-07-30T04:52:59;19.45;;;5.88;;
59207;SDS011;44977;53.132;6.408;2023-07-30T04:58:00;16.10;;;5.55;;
59207;SDS011;44977;53.132;6.408;2023-07-30T05:03:01;19.45;;;5.53;;
59207;SDS011;44977;53.132;6.408;2023-07-30T05:08:01;18.35;;;5.78;;
59207;SDS011;44977;53.132;6.408;2023-07-30T05:13:02;18.55;;;5.35;;
59207;SDS011;44977;53.132;6.408;2023-07-30T05:18:02;19.15;;;5.70;;
59207;SDS011;44977;53.132;6.408;2023-07-30T05:23:03;16.98;;;5.07;;
59207;SDS011;44977;53.132;6.408;2023-07-30T05:28:04;15.85;;;5.30;;
59207;SDS011;44977;53.132;6.408;2023-07-30T05:33:05;17.45;;;5.05;;
59207;SDS011;44977;53.132;6.408;2023-07-30T05:38:05;14.50;;;4.88;;
59207;SDS011;44977;53.132;6.408;2023-07-30T05:43:06;14.73;;;4.72;;
59207;SDS011;44977;53.132;6.408;2023-07-30T05:48:07;15.07;;;4.13;;
59207;SDS011;44977;53.132;6.408;2023-07-30T05:53:07;16.85;;;4.85;;
59207;SDS011;44977;53.132;6.408;2023-07-30T05:58:08;17.02;;;5.00;;
59207;SDS011;44977;53.132;6.408;2023-07-30T06:03:09;14.18;;;4.40;;
59207;SDS011;44977;53.132;6.408;2023-07-30T06:08:09;14.05;;;3.70;;
59207;SDS011;44977;53.132;6.408;2023-07-30T06:13:10;14.75;;;4.10;;
59207;SDS011;44977;53.132;6.408;2023-07-30T06:18:11;11.93;;;3.90;;
59207;SDS011;44977;53.132;6.408;2023-07-30T06:23:12;16.77;;;4.40;;
59207;SDS011;44977;53.132;6.408;2023-07-30T06:28:12;13.70;;;4.80;;
59207;SDS011;44977;53.132;6.408;2023-07-30T06:33:13;17.05;;;5.13;;
59207;SDS011;44977;53.132;6.408;2023-07-30T06:38:14;15.13;;;4.70;;
59207;SDS011;44977;53.132;6.408;2023-07-30T06:43:14;16.02;;;5.30;;
59207;SDS011;44977;53.132;6.408;2023-07-30T06:48:15;14.95;;;4.28;;
59207;SDS011;44977;53.132;6.408;2023-07-30T06:53:16;12.30;;;4.15;;
59207;SDS011;44977;53.132;6.408;2023-07-30T06:58:17;13.27;;;3.80;;
59207;SDS011;44977;53.132;6.408;2023-07-30T07:03:17;12.35;;;4.22;;
59207;SDS011;44977;53.132;6.408;2023-07-30T07:08:18;13.88;;;3.72;;
59207;SDS011;44977;53.132;6.408;2023-07-30T07:13:19;14.15;;;3.42;;
59207;SDS011;44977;53.132;6.408;2023-07-30T07:18:19;11.23;;;3.35;;
59207;SDS011;44977;53.132;6.408;2023-07-30T07:23:20;11.52;;;2.78;;
59207;SDS011;44977;53.132;6.408;2023-07-30T07:28:21;11.38;;;3.15;;
59207;SDS011;44977;53.132;6.408;2023-07-30T07:33:21;14.38;;;3.65;;
59207;SDS011;44977;53.132;6.408;2023-07-30T07:38:22;13.13;;;3.20;;
59207;SDS011;44977;53.132;6.408;2023-07-30T07:43:24;10.68;;;2.90;;
59207;SDS011;44977;53.132;6.408;2023-07-30T07:48:24;10.13;;;2.40;;
59207;SDS011;44977;53.132;6.408;2023-07-30T07:53:25;10.32;;;2.50;;
59207;SDS011;44977;53.132;6.408;2023-07-30T07:58:26;10.77;;;2.65;;
59207;SDS011;44977;53.132;6.408;2023-07-30T08:03:28;12.00;;;2.60;;
59207;SDS011;44977;53.132;6.408;2023-07-30T08:08:29;11.40;;;2.97;;
59207;SDS011;44977;53.132;6.408;2023-07-30T08:13:29;11.80;;;2.65;;
59207;SDS011;44977;53.132;6.408;2023-07-30T08:18:33;11.88;;;2.83;;
59207;SDS011;44977;53.132;6.408;2023-07-30T08:23:33;10.27;;;2.17;;
59207;SDS011;44977;53.132;6.408;2023-07-30T08:28:34;10.95;;;2.85;;
59207;SDS011;44977;53.132;6.408;2023-07-30T08:33:35;10.25;;;2.50;;
59207;SDS011;44977;53.132;6.408;2023-07-30T08:38:36;12.77;;;2.60;;
59207;SDS011;44977;53.132;6.408;2023-07-30T08:43:36;7.47;;;2.08;;
59207;SDS011;44977;53.132;6.408;2023-07-30T08:48:37;10.70;;;2.60;;
59207;SDS011;44977;53.132;6.408;2023-07-30T08:53:38;10.68;;;2.40;;
59207;SDS011;44977;53.132;6.408;2023-07-30T08:58:39;8.63;;;2.10;;
59207;SDS011;44977;53.132;6.408;2023-07-30T09:03:40;10.38;;;2.45;;
59207;SDS011;44977;53.132;6.408;2023-07-30T09:08:41;9.32;;;2.33;;
59207;SDS011;44977;53.132;6.408;2023-07-30T09:13:42;10.75;;;2.40;;
59207;SDS011;44977;53.132;6.408;2023-07-30T09:18:45;8.82;;;2.15;;
59207;SDS011;44977;53.132;6.408;2023-07-30T09:23:46;11.25;;;2.30;;
59207;SDS011;44977;53.132;6.408;2023-07-30T09:28:47;10.23;;;2.53;;
59207;SDS011;44977;53.132;6.408;2023-07-30T09:33:48;7.75;;;2.03;;
59207;SDS011;44977;53.132;6.408;2023-07-30T09:38:48;8.90;;;1.95;;
59207;SDS011;44977;53.132;6.408;2023-07-30T09:43:56;7.55;;;1.95;;
59207;SDS011;44977;53.132;6.408;2023-07-30T09:48:58;8.07;;;1.70;;
59207;SDS011;44977;53.132;6.408;2023-07-30T09:54:00;6.95;;;2.00;;
59207;SDS011;44977;53.132;6.408;2023-07-30T09:59:02;7.55;;;1.88;;
59207;SDS011;44977;53.132;6.408;2023-07-30T10:04:07;7.20;;;1.70;;
59207;SDS011;44977;53.132;6.408;2023-07-30T10:09:09;5.95;;;1.52;;
59207;SDS011;44977;53.132;6.408;2023-07-30T10:14:12;6.65;;;1.88;;
59207;SDS011;44977;53.132;6.408;2023-07-30T10:19:15;9.55;;;1.90;;
59207;SDS011;44977;53.132;6.408;2023-07-30T10:24:16;8.85;;;2.22;;
59207;SDS011;44977;53.132;6.408;2023-07-30T10:29:18;7.88;;;2.15;;
59207;SDS011;44977;53.132;6.408;2023-07-30T10:34:20;7.95;;;2.00;;
59207;SDS011;44977;53.132;6.408;2023-07-30T10:39:21;9.18;;;2.15;;
59207;SDS011;44977;53.132;6.408;2023-07-30T10:44:27;9.37;;;2.50;;
59207;SDS011;44977;53.132;6.408;2023-07-30T10:49:35;9.35;;;2.28;;
59207;SDS011;44977;53.132;6.408;2023-07-30T10:54:38;9.50;;;2.53;;
59207;SDS011;44977;53.132;6.408;2023-07-30T10:59:39;10.65;;;2.60;;
59207;SDS011;44977;53.132;6.408;2023-07-30T11:04:41;9.52;;;2.25;;
59207;SDS011;44977;53.132;6.408;2023-07-30T11:09:42;10.80;;;2.40;;
59207;SDS011;44977;53.132;6.408;2023-07-30T11:14:42;10.93;;;2.53;;
59207;SDS011;44977;53.132;6.408;2023-07-30T11:19:43;9.25;;;2.30;;
59207;SDS011;44977;53.132;6.408;2023-07-30T11:24:44;11.23;;;2.90;;
59207;SDS011;44977;53.132;6.408;2023-07-30T11:29:53;9.55;;;2.28;;
59207;SDS011;44977;53.132;6.408;2023-07-30T11:34:55;8.07;;;2.10;;
59207;SDS011;44977;53.132;6.408;2023-07-30T11:39:56;9.70;;;2.42;;
59207;SDS011;44977;53.132;6.408;2023-07-30T11:44:56;9.90;;;2.10;;
59207;SDS011;44977;53.132;6.408;2023-07-30T11:49:57;8.90;;;2.20;;
59207;SDS011;44977;53.132;6.408;2023-07-30T11:55:01;10.70;;;2.25;;
59207;SDS011;44977;53.132;6.408;2023-07-30T12:00:03;10.75;;;2.63;;
59207;SDS011;44977;53.132;6.408;2023-07-30T12:05:09;10.38;;;2.25;;
59207;SDS011;44977;53.132;6.408;2023-07-30T12:10:12;7.43;;;1.80;;
59207;SDS011;44977;53.132;6.408;2023-07-30T12:15:13;8.20;;;1.65;;
59207;SDS011;44977;53.132;6.408;2023-07-30T12:20:14;9.32;;;2.03;;
59207;SDS011;44977;53.132;6.408;2023-07-30T12:25:15;7.25;;;1.52;;
59207;SDS011;44977;53.132;6.408;2023-07-30T12:30:15;7.97;;;1.80;;
59207;SDS011;44977;53.132;6.408;2023-07-30T12:35:16;9.10;;;1.90;;
59207;SDS011;44977;53.132;6.408;2023-07-30T12:40:17;11.30;;;2.35;;
59207;SDS011;44977;53.132;6.408;2023-07-30T12:45:18;8.27;;;2.08;;
59207;SDS011;44977;53.132;6.408;2023-07-30T12:50:18;7.45;;;1.90;;
59207;SDS011;44977;53.132;6.408;2023-07-30T12:55:19;11.00;;;1.95;;
59207;SDS011;44977;53.132;6.408;2023-07-30T13:00:20;9.30;;;1.70;;
59207;SDS011;44977;53.132;6.408;2023-07-30T13:05:21;9.68;;;1.90;;
59207;SDS011;44977;53.132;6.408;2023-07-30T13:10:22;8.15;;;1.65;;
59207;SDS011;44977;53.132;6.408;2023-07-30T13:15:22;7.05;;;1.65;;
59207;SDS011;44977;53.132;6.408;2023-07-30T13:20:23;9.82;;;1.92;;
59207;SDS011;44977;53.132;6.408;2023-07-30T13:25:24;7.95;;;1.73;;
59207;SDS011;44977;53.132;6.408;2023-07-30T13:30:25;9.30;;;1.98;;
59207;SDS011;44977;53.132;6.408;2023-07-30T13:35:26;9.35;;;1.95;;
59207;SDS011;44977;53.132;6.408;2023-07-30T13:40:27;10.40;;;1.77;;
59207;SDS011;44977;53.132;6.408;2023-07-30T13:45:28;7.78;;;1.65;;
59207;SDS011;44977;53.132;6.408;2023-07-30T13:50:28;8.25;;;1.83;;
59207;SDS011;44977;53.132;6.408;2023-07-30T13:55:29;6.03;;;1.50;;
59207;SDS011;44977;53.132;6.408;2023-07-30T14:00:30;7.43;;;1.80;;
59207;SDS011;44977;53.132;6.408;2023-07-30T14:05:31;9.75;;;2.05;;
59207;SDS011;44977;53.132;6.408;2023-07-30T14:10:31;9.50;;;1.80;;
59207;SDS011;44977;53.132;6.408;2023-07-30T14:15:32;11.13;;;2.53;;
59207;SDS011;44977;53.132;6.408;2023-07-30T14:20:33;7.82;;;1.65;;
59207;SDS011;44977;53.132;6.408;2023-07-30T14:25:35;9.13;;;2.50;;
59207;SDS011;44977;53.132;6.408;2023-07-30T14:30:36;11.38;;;2.25;;
59207;SDS011;44977;53.132;6.408;2023-07-30T14:35:38;9.05;;;1.90;;
59207;SDS011;44977;53.132;6.408;2023-07-30T14:40:39;8.70;;;1.77;;
59207;SDS011;44977;53.132;6.408;2023-07-30T14:45:42;7.25;;;1.70;;
59207;SDS011;44977;53.132;6.408;2023-07-30T14:50:43;7.25;;;1.80;;
59207;SDS011;44977;53.132;6.408;2023-07-30T14:55:43;10.32;;;2.08;;
59207;SDS011;44977;53.132;6.408;2023-07-30T15:00:44;10.80;;;2.42;;
59207;SDS011;44977;53.132;6.408;2023-07-30T15:05:45;7.07;;;2.00;;
59207;SDS011;44977;53.132;6.408;2023-07-30T15:10:45;7.40;;;2.00;;
59207;SDS011;44977;53.132;6.408;2023-07-30T15:15:46;6.15;;;1.67;;
59207;SDS011;44977;53.132;6.408;2023-07-30T15:20:47;6.57;;;1.60;;
59207;SDS011;44977;53.132;6.408;2023-07-30T15:25:48;6.53;;;1.30;;
59207;SDS011;44977;53.132;6.408;2023-07-30T15:30:51;5.20;;;1.52;;
59207;SDS011;44977;53.132;6.408;2023-07-30T15:35:52;8.52;;;2.00;;
59207;SDS011;44977;53.132;6.408;2023-07-30T15:40:52;7.20;;;2.00;;
59207;SDS011;44977;53.132;6.408;2023-07-30T15:45:53;7.13;;;1.58;;
59207;SDS011;44977;53.132;6.408;2023-07-30T15:51:02;6.85;;;1.70;;
59207;SDS011;44977;53.132;6.408;2023-07-30T15:56:02;8.35;;;2.00;;
59207;SDS011;44977;53.132;6.408;2023-07-30T16:01:04;7.10;;;1.92;;
59207;SDS011;44977;53.132;6.408;2023-07-30T16:06:09;9.45;;;2.13;;
59207;SDS011;44977;53.132;6.408;2023-07-30T16:11:10;8.40;;;2.08;;
59207;SDS011;44977;53.132;6.408;2023-07-30T16:16:15;8.48;;;1.90;;
59207;SDS011;44977;53.132;6.408;2023-07-30T16:21:20;9.75;;;2.05;;
59207;SDS011;44977;53.132;6.408;2023-07-30T16:26:20;7.55;;;2.17;;
59207;SDS011;44977;53.132;6.408;2023-07-30T16:31:21;7.45;;;1.65;;
59207;SDS011;44977;53.132;6.408;2023-07-30T16:36:22;8.88;;;1.95;;
59207;SDS011;44977;53.132;6.408;2023-07-30T16:41:22;7.65;;;1.58;;
59207;SDS011;44977;53.132;6.408;2023-07-30T16:46:23;8.45;;;2.10;;
59207;SDS011;44977;53.132;6.408;2023-07-30T16:51:24;7.32;;;1.70;;
59207;SDS011;44977;53.132;6.408;2023-07-30T16:56:24;8.75;;;1.67;;
59207;SDS011;44977;53.132;6.408;2023-07-30T17:01:25;8.75;;;2.33;;
59207;SDS011;44977;53.132;6.408;2023-07-30T17:06:26;7.82;;;1.85;;
59207;SDS011;44977;53.132;6.408;2023-07-30T17:11:26;11.07;;;2.17;;
59207;SDS011;44977;53.132;6.408;2023-07-30T17:16:27;8.60;;;2.13;;
59207;SDS011;44977;53.132;6.408;2023-07-30T17:21:28;8.70;;;2.03;;
59207;SDS011;44977;53.132;6.408;2023-07-30T17:26:29;7.38;;;1.80;;
59207;SDS011;44977;53.132;6.408;2023-07-30T17:31:30;7.95;;;2.00;;
59207;SDS011;44977;53.132;6.408;2023-07-30T17:36:30;8.43;;;2.20;;
59207;SDS011;44977;53.132;6.408;2023-07-30T17:41:34;9.10;;;2.20;;
59207;SDS011;44977;53.132;6.408;2023-07-30T17:46:35;9.77;;;2.33;;
59207;SDS011;44977;53.132;6.408;2023-07-30T17:51:35;10.70;;;2.53;;
59207;SDS011;44977;53.132;6.408;2023-07-30T17:56:36;8.95;;;2.60;;
59207;SDS011;44977;53.132;6.408;2023-07-30T18:01:39;9.43;;;2.40;;
59207;SDS011;44977;53.132;6.408;2023-07-30T18:06:39;8.15;;;2.50;;
59207;SDS011;44977;53.132;6.408;2023-07-30T18:11:40;11.10;;;2.83;;
59207;SDS011;44977;53.132;6.408;2023-07-30T18:16:41;11.65;;;2.97;;
59207;SDS011;44977;53.132;6.408;2023-07-30T18:21:41;12.80;;;3.28;;
59207;SDS011;44977;53.132;6.408;2023-07-30T18:26:42;12.95;;;3.50;;
59207;SDS011;44977;53.132;6.408;2023-07-30T18:31:43;15.45;;;3.47;;
59207;SDS011;44977;53.132;6.408;2023-07-30T18:36:45;11.60;;;3.47;;
59207;SDS011;44977;53.132;6.408;2023-07-30T18:41:46;14.40;;;3.47;;
59207;SDS011;44977;53.132;6.408;2023-07-30T18:46:46;14.45;;;4.10;;
59207;SDS011;44977;53.132;6.408;2023-07-30T18:51:47;14.98;;;4.60;;
59207;SDS011;44977;53.132;6.408;2023-07-30T18:56:48;14.00;;;4.22;;
59207;SDS011;44977;53.132;6.408;2023-07-30T19:01:49;14.98;;;4.82;;
59207;SDS011;44977;53.132;6.408;2023-07-30T19:06:50;14.82;;;3.90;;
59207;SDS011;44977;53.132;6.408;2023-07-30T19:11:50;15.70;;;4.65;;
59207;SDS011;44977;53.132;6.408;2023-07-30T19:16:51;16.35;;;4.70;;
59207;SDS011;44977;53.132;6.408;2023-07-30T19:21:52;16.65;;;4.30;;
59207;SDS011;44977;53.132;6.408;2023-07-30T19:26:53;15.75;;;4.43;;
59207;SDS011;44977;53.132;6.408;2023-07-30T19:31:53;15.50;;;4.57;;
59207;SDS011;44977;53.132;6.408;2023-07-30T19:36:54;13.05;;;3.80;;
59207;SDS011;44977;53.132;6.408;2023-07-30T19:41:55;17.60;;;3.90;;
59207;SDS011;44977;53.132;6.408;2023-07-30T19:46:56;12.10;;;3.85;;
59207;SDS011;44977;53.132;6.408;2023-07-30T19:51:56;18.00;;;4.85;;
59207;SDS011;44977;53.132;6.408;2023-07-30T19:56:57;15.75;;;4.05;;
59207;SDS011;44977;53.132;6.408;2023-07-30T20:01:58;13.68;;;4.07;;
59207;SDS011;44977;53.132;6.408;2023-07-30T20:07:01;14.02;;;3.80;;
59207;SDS011;44977;53.132;6.408;2023-07-30T20:12:02;15.35;;;3.95;;
59207;SDS011;44977;53.132;6.408;2023-07-30T20:17:04;14.32;;;3.60;;
59207;SDS011;44977;53.132;6.408;2023-07-30T20:22:05;13.23;;;3.65;;
59207;SDS011;44977;53.132;6.408;2023-07-30T20:27:12;12.05;;;3.50;;
59207;SDS011;44977;53.132;6.408;2023-07-30T20:32:12;12.85;;;3.63;;
59207;SDS011;44977;53.132;6.408;2023-07-30T20:37:13;12.68;;;4.05;;
59207;SDS011;44977;53.132;6.408;2023-07-30T20:42:14;16.90;;;4.25;;
59207;SDS011;44977;53.132;6.408;2023-07-30T20:47:15;12.82;;;3.55;;
59207;SDS011;44977;53.132;6.408;2023-07-30T20:52:15;10.10;;;3.22;;
59207;SDS011;44977;53.132;6.408;2023-07-30T20:57:16;12.18;;;3.80;;
59207;SDS011;44977;53.132;6.408;2023-07-30T21:02:17;12.98;;;3.63;;
59207;SDS011;44977;53.132;6.408;2023-07-30T21:07:18;10.10;;;3.35;;
59207;SDS011;44977;53.132;6.408;2023-07-30T21:12:19;10.07;;;2.97;;
59207;SDS011;44977;53.132;6.408;2023-07-30T21:17:20;11.82;;;3.45;;
59207;SDS011;44977;53.132;6.408;2023-07-30T21:22:21;9.10;;;2.78;;
59207;SDS011;44977;53.132;6.408;2023-07-30T21:27:21;12.25;;;3.55;;
59207;SDS011;44977;53.132;6.408;2023-07-30T21:32:22;9.30;;;2.90;;
59207;SDS011;44977;53.132;6.408;2023-07-30T21:37:23;11.13;;;3.47;;
59207;SDS011;44977;53.132;6.408;2023-07-30T21:42:24;9.68;;;3.25;;
59207;SDS011;44977;53.132;6.408;2023-07-30T21:47:26;11.88;;;3.25;;
59207;SDS011;44977;53.132;6.408;2023-07-30T21:52:27;10.77;;;3.30;;
59207;SDS011;44977;53.132;6.408;2023-07-30T21:57:30;8.57;;;3.10;;
59207;SDS011;44977;53.132;6.408;2023-07-30T22:02:30;7.88;;;3.50;;
59207;SDS011;44977;53.132;6.408;2023-07-30T22:07:31;9.60;;;4.15;;
59207;SDS011;44977;53.132;6.408;2023-07-30T22:12:32;7.72;;;3.30;;
59207;SDS011;44977;53.132;6.408;2023-07-30T22:17:33;8.10;;;4.22;;
59207;SDS011;44977;53.132;6.408;2023-07-30T22:22:34;8.98;;;4.15;;
59207;SDS011;44977;53.132;6.408;2023-07-30T22:27:35;8.73;;;4.10;;
59207;SDS011;44977;53.132;6.408;2023-07-30T22:32:35;8.93;;;4.10;;
59207;SDS011;44977;53.132;6.408;2023-07-30T22:37:36;8.85;;;4.70;;
59207;SDS011;44977;53.132;6.408;2023-07-30T22:42:37;9.45;;;4.70;;
59207;SDS011;44977;53.132;6.408;2023-07-30T22:47:37;7.55;;;4.38;;
59207;SDS011;44977;53.132;6.408;2023-07-30T22:52:38;10.13;;;5.30;;
59207;SDS011;44977;53.132;6.408;2023-07-30T22:57:39;8.38;;;4.40;;
59207;SDS011;44977;53.132;6.408;2023-07-30T23:02:39;8.82;;;4.93;;
59207;SDS011;44977;53.132;6.408;2023-07-30T23:07:40;9.35;;;5.50;;
59207;SDS011;44977;53.132;6.408;2023-07-30T23:12:42;8.82;;;4.93;;
59207;SDS011;44977;53.132;6.408;2023-07-30T23:17:43;8.13;;;5.20;;
59207;SDS011;44977;53.132;6.408;2023-07-30T23:22:43;8.50;;;5.30;;
59207;SDS011;44977;53.132;6.408;2023-07-30T23:27:44;8.13;;;5.30;;
59207;SDS011;44977;53.132;6.408;2023-07-30T23:32:45;8.23;;;5.95;;
59207;SDS011;44977;53.132;6.408;2023-07-30T23:37:45;8.43;;;5.75;;
59207;SDS011;44977;53.132;6.408;2023-07-30T23:42:46;8.77;;;5.82;;
59207;SDS011;44977;53.132;6.408;2023-07-30T23:47:47;8.43;;;5.85;;
59207;SDS011;44977;53.132;6.408;2023-07-30T23:52:48;9.40;;;5.20;;
59207;SDS011;44977;53.132;6.408;2023-07-30T23:57:49;10.20;;;4.82;;
